Time;durP1;ratioP1;P1;durP2;ratioP2;P2;SDS_P1;SDS_P2;PMS_P1;PMS_P2;Temp;Humidity;BMP_temperature;BMP_pressure;BME280_temperature;BME280_humidity;BME280_pressure;Samples;Min_cycle;Max_cycle;Signal;HPM_P1;HPM_P2
2022/05/02 00:02:11;;;;;;;9.43;5.00;;;8.80;1.00;;;;;;5096399;28;20220;-50
2022/05/02 00:04:36;;;;;;;8.70;4.73;;;8.80;1.00;;;;;;5088523;28;20204;-50
2022/05/02 00:07:03;;;;;;;10.40;5.37;;;8.80;1.00;;;;;;5093744;28;20261;-50
2022/05/02 00:09:28;;;;;;;6.03;4.53;;;8.80;1.00;;;;;;5104004;28;20215;-50
2022/05/02 00:11:54;;;;;;;7.40;4.70;;;8.70;1.00;;;;;;5104737;27;20450;-51
2022/05/02 00:14:19;;;;;;;8.23;4.93;;;8.70;1.00;;;;;;5096888;28;20201;-51
2022/05/02 00:16:45;;;;;;;10.50;5.30;;;8.70;1.00;;;;;;5100187;28;20675;-50
2022/05/02 00:19:11;;;;;;;6.70;5.37;;;8.60;1.00;;;;;;5104603;28;20228;-50
2022/05/02 00:21:36;;;;;;;5.63;4.87;;;8.60;1.00;;;;;;5099938;28;20213;-50
2022/05/02 00:24:02;;;;;;;8.73;5.33;;;8.60;1.00;;;;;;5103906;28;20430;-50
2022/05/02 00:26:27;;;;;;;8.27;4.97;;;8.50;1.00;;;;;;5094568;28;20189;-51
2022/05/02 00:28:53;;;;;;;5.33;4.50;;;8.50;1.00;;;;;;5104196;28;20562;-50
2022/05/02 00:31:18;;;;;;;6.10;4.90;;;8.40;1.00;;;;;;5104184;28;20227;-50
2022/05/02 00:33:44;;;;;;;9.40;5.50;;;8.40;1.00;;;;;;5098874;28;20544;-50
2022/05/02 00:36:09;;;;;;;7.80;5.07;;;8.30;1.00;;;;;;5090279;28;20188;-50
2022/05/02 00:38:35;;;;;;;6.40;4.13;;;8.20;1.00;;;;;;5079843;28;20193;-50
2022/05/02 00:41:01;;;;;;;5.87;4.27;;;8.10;1.00;;;;;;5103721;28;20238;-50
2022/05/02 00:43:26;;;;;;;6.23;4.87;;;8.00;1.00;;;;;;5106931;28;20251;-50
2022/05/02 00:45:52;;;;;;;8.93;4.73;;;7.80;1.00;;;;;;5096788;28;21203;-50
2022/05/02 00:48:17;;;;;;;6.10;5.10;;;7.70;1.00;;;;;;5099423;28;20586;-51
2022/05/02 00:50:44;;;;;;;7.30;4.77;;;7.60;1.00;;;;;;5104437;28;20692;-50
2022/05/02 00:53:13;;;;;;;8.37;4.90;;;7.50;1.00;;;;;;5102495;28;20623;-50
2022/05/02 00:55:39;;;;;;;5.93;4.87;;;7.40;1.00;;;;;;5107294;28;20464;-51
2022/05/02 00:58:05;;;;;;;10.03;4.50;;;7.30;1.00;;;;;;5105182;28;20465;-50
2022/05/02 01:00:34;;;;;;;8.03;5.10;;;7.30;1.00;;;;;;5106580;28;20417;-50
2022/05/02 01:03:01;;;;;;;6.60;4.97;;;7.20;1.00;;;;;;5105602;28;21044;-50
2022/05/02 01:05:27;;;;;;;6.67;4.77;;;7.20;1.00;;;;;;5101313;28;20438;-50
2022/05/02 01:07:52;;;;;;;11.53;5.53;;;7.10;1.00;;;;;;5102221;28;20988;-50
2022/05/02 01:10:18;;;;;;;6.57;5.83;;;7.00;1.00;;;;;;5102146;28;20265;-50
2022/05/02 01:12:46;;;;;;;8.70;4.97;;;7.00;1.00;;;;;;5101034;28;20268;-50
2022/05/02 01:15:12;;;;;;;5.73;4.93;;;7.00;1.00;;;;;;5102474;28;20498;-50
2022/05/02 01:17:38;;;;;;;8.07;5.33;;;6.90;1.00;;;;;;5103548;28;20450;-50
2022/05/02 01:20:08;;;;;;;6.60;5.00;;;6.90;1.00;;;;;;5097005;28;20539;-50
2022/05/02 01:22:34;;;;;;;5.70;4.90;;;6.90;1.00;;;;;;5100280;28;20232;-55
2022/05/02 01:24:59;;;;;;;8.87;5.37;;;6.80;1.00;;;;;;5102920;28;20426;-56
2022/05/02 01:27:25;;;;;;;8.47;5.13;;;6.80;1.00;;;;;;5106406;28;20197;-55
2022/05/02 01:29:50;;;;;;;8.60;5.60;;;6.80;1.00;;;;;;5108067;28;20610;-56
2022/05/02 01:32:16;;;;;;;9.27;5.83;;;6.70;1.00;;;;;;5098730;28;20192;-56
2022/05/02 01:34:42;;;;;;;7.17;5.00;;;6.70;1.00;;;;;;5103571;28;20193;-56
2022/05/02 01:37:09;;;;;;;9.23;5.40;;;6.70;1.00;;;;;;5102219;28;20197;-55
2022/05/02 01:39:36;;;;;;;8.87;5.23;;;6.70;1.00;;;;;;5100990;28;21288;-55
2022/05/02 01:42:04;;;;;;;6.90;5.63;;;6.70;1.00;;;;;;5103812;28;20474;-56
2022/05/02 01:44:29;;;;;;;6.73;4.93;;;6.70;1.00;;;;;;5106400;28;20430;-56
2022/05/02 01:46:55;;;;;;;6.37;5.33;;;6.70;1.00;;;;;;5083858;28;20426;-56
2022/05/02 01:49:22;;;;;;;7.53;5.53;;;6.70;1.00;;;;;;5101253;28;20263;-56
2022/05/02 01:51:48;;;;;;;10.07;5.30;;;6.70;1.00;;;;;;5105372;28;20433;-55
2022/05/02 01:54:13;;;;;;;6.37;5.20;;;6.70;1.00;;;;;;5105178;28;20427;-55
2022/05/02 01:56:39;;;;;;;10.07;4.90;;;6.70;1.00;;;;;;5098747;28;20924;-56
2022/05/02 01:59:04;;;;;;;7.30;5.73;;;6.70;1.00;;;;;;5104094;27;20212;-55
2022/05/02 02:01:31;;;;;;;8.00;5.77;;;6.70;1.00;;;;;;5097137;28;20288;-55
2022/05/02 02:03:59;;;;;;;7.20;6.03;;;6.70;1.00;;;;;;5105618;28;20193;-55
2022/05/02 02:06:26;;;;;;;6.93;5.97;;;6.80;1.00;;;;;;5097393;28;20446;-56
2022/05/02 02:08:52;;;;;;;13.60;6.07;;;6.80;1.00;;;;;;5096856;28;20779;-50
2022/05/02 02:11:18;;;;;;;5.90;5.30;;;6.80;1.00;;;;;;5104537;28;20777;-50
2022/05/02 02:13:44;;;;;;;7.93;5.80;;;6.80;1.00;;;;;;5104066;27;20431;-50
2022/05/02 02:16:10;;;;;;;6.23;5.40;;;6.80;1.00;;;;;;5100296;28;20650;-50
2022/05/02 02:18:40;;;;;;;14.33;7.43;;;6.80;1.00;;;;;;5101429;28;20486;-50
2022/05/02 02:21:08;;;;;;;7.70;5.80;;;6.80;1.00;;;;;;5099876;28;20442;-51
2022/05/02 02:23:33;;;;;;;7.10;6.00;;;6.70;1.00;;;;;;5106082;28;20474;-49
2022/05/02 02:25:59;;;;;;;7.37;5.50;;;6.60;1.00;;;;;;5106605;27;20854;-50
2022/05/02 02:28:25;;;;;;;7.97;5.60;;;6.60;1.00;;;;;;5101157;28;20258;-50
2022/05/02 02:30:51;;;;;;;6.70;4.93;;;6.50;1.00;;;;;;5100112;28;20582;-49
2022/05/02 02:33:17;;;;;;;11.93;5.83;;;6.50;1.00;;;;;;5101023;28;20442;-49
2022/05/02 02:35:42;;;;;;;11.17;5.90;;;6.40;1.00;;;;;;5099614;28;20831;-50
2022/05/02 02:38:12;;;;;;;6.43;5.73;;;6.40;1.00;;;;;;5100798;28;20183;-50
2022/05/02 02:40:39;;;;;;;12.90;6.00;;;6.30;1.00;;;;;;5098104;28;20650;-50
2022/05/02 02:43:06;;;;;;;8.07;6.10;;;6.30;1.00;;;;;;5104752;28;21032;-50
2022/05/02 02:45:32;;;;;;;9.60;5.90;;;6.20;1.00;;;;;;5098293;27;20431;-50
2022/05/02 02:47:57;;;;;;;8.53;5.57;;;6.10;1.00;;;;;;5098672;28;20426;-49
2022/05/02 02:50:23;;;;;;;9.90;6.40;;;6.10;1.00;;;;;;5098697;28;20200;-50
2022/05/02 02:52:49;;;;;;;7.63;6.27;;;6.00;1.00;;;;;;5107982;28;20191;-51
2022/05/02 02:55:18;;;;;;;6.10;5.50;;;5.90;1.00;;;;;;5102080;28;20204;-50
2022/05/02 02:57:44;;;;;;;10.50;6.23;;;5.90;1.00;;;;;;5099008;28;20949;-50
2022/05/02 03:00:10;;;;;;;9.30;5.80;;;5.80;1.00;;;;;;5099094;28;20434;-50
2022/05/02 03:02:40;;;;;;;8.10;5.93;;;5.70;1.00;;;;;;5103767;28;20217;-50
2022/05/02 03:07:50;;;;;;;10.03;6.10;;;5.70;1.00;;;;;;5098771;28;20425;-50
2022/05/02 03:10:16;;;;;;;8.57;5.30;;;5.60;1.00;;;;;;5089101;28;20415;-50
2022/05/02 03:12:41;;;;;;;10.67;6.00;;;5.60;8.00;;;;;;5099753;28;20229;-50
2022/05/02 03:15:11;;;;;;;7.90;5.90;;;5.50;1.00;;;;;;5102188;28;20580;-50
2022/05/02 03:17:36;;;;;;;9.20;6.10;;;5.40;3.40;;;;;;5098760;28;20280;-50
2022/05/02 03:20:02;;;;;;;8.90;6.03;;;5.40;27.40;;;;;;5094007;28;20585;-50
2022/05/02 03:22:27;;;;;;;9.73;6.40;;;5.30;50.10;;;;;;5097509;28;20577;-50
2022/05/02 03:24:53;;;;;;;8.57;6.10;;;5.30;67.40;;;;;;5100643;28;20193;-50
2022/05/02 03:27:18;;;;;;;9.03;6.70;;;5.20;88.30;;;;;;5096594;28;20643;-50
2022/05/02 03:29:44;;;;;;;8.20;6.63;;;5.20;99.90;;;;;;5102295;28;20238;-51
2022/05/02 03:32:09;;;;;;;11.40;6.70;;;5.20;99.90;;;;;;5096360;28;20200;-51
2022/05/02 03:34:35;;;;;;;10.20;6.50;;;5.10;95.10;;;;;;5105808;28;20219;-50
2022/05/02 03:37:00;;;;;;;7.43;6.03;;;5.10;99.90;;;;;;5105618;28;20197;-50
2022/05/02 03:39:26;;;;;;;8.13;6.30;;;5.10;91.60;;;;;;5100509;28;20211;-51
2022/05/02 03:41:52;;;;;;;8.30;6.10;;;5.00;94.70;;;;;;5106018;28;20258;-50
2022/05/02 03:44:18;;;;;;;11.73;6.50;;;5.00;99.90;;;;;;5103248;28;20212;-50
2022/05/02 03:46:43;;;;;;;9.57;6.60;;;4.90;99.90;;;;;;5100630;28;20445;-50
2022/05/02 03:49:09;;;;;;;10.43;6.37;;;4.90;99.90;;;;;;5100313;28;20334;-50
2022/05/02 03:51:34;;;;;;;11.43;6.47;;;4.90;99.90;;;;;;5099015;28;20230;-50
2022/05/02 03:54:00;;;;;;;18.03;6.53;;;4.90;99.90;;;;;;5102356;28;20193;-51
2022/05/02 03:56:25;;;;;;;9.30;6.90;;;4.80;99.90;;;;;;5099435;28;20200;-50
2022/05/02 03:58:52;;;;;;;12.60;7.50;;;4.80;99.90;;;;;;5100237;28;20184;-50
2022/05/02 04:01:18;;;;;;;11.77;7.53;;;4.80;99.90;;;;;;5097391;28;20204;-51
2022/05/02 04:03:43;;;;;;;9.80;6.50;;;4.80;99.90;;;;;;5098414;28;20976;-50
2022/05/02 04:06:09;;;;;;;10.07;6.50;;;4.90;99.90;;;;;;5097673;28;20192;-50
2022/05/02 04:08:35;;;;;;;9.77;7.60;;;4.90;99.90;;;;;;5104463;28;20199;-50
2022/05/02 04:11:00;;;;;;;10.77;6.60;;;4.90;99.90;;;;;;5102453;28;20192;-51
2022/05/02 04:13:26;;;;;;;18.80;7.00;;;5.00;99.90;;;;;;5081949;28;20335;-50
2022/05/02 04:15:52;;;;;;;11.73;7.60;;;5.00;99.90;;;;;;5096789;28;20684;-50
2022/05/02 04:18:17;;;;;;;12.47;7.90;;;5.00;99.90;;;;;;5097351;28;20220;-50
2022/05/02 04:20:43;;;;;;;14.40;7.40;;;5.00;99.90;;;;;;5095442;28;20658;-50
2022/05/02 04:23:09;;;;;;;9.90;7.03;;;5.10;99.90;;;;;;5101503;28;20666;-50
2022/05/02 04:25:34;;;;;;;11.83;6.80;;;5.10;99.90;;;;;;5106019;28;20434;-51
2022/05/02 04:28:00;;;;;;;11.90;6.83;;;5.10;99.90;;;;;;5092008;28;20282;-50
2022/05/02 04:30:25;;;;;;;8.67;7.00;;;5.10;99.90;;;;;;5112811;28;20192;-50
2022/05/02 04:32:51;;;;;;;10.43;7.20;;;5.10;99.90;;;;;;5107415;27;20852;-50
2022/05/02 04:35:16;;;;;;;8.27;6.90;;;5.10;99.90;;;;;;5100508;28;20200;-50
2022/05/02 04:37:42;;;;;;;10.00;7.30;;;5.10;99.90;;;;;;5111071;28;20202;-50
2022/05/02 04:40:08;;;;;;;14.33;7.43;;;5.20;99.90;;;;;;5106433;28;20322;-50
2022/05/02 04:42:33;;;;;;;8.90;6.83;;;5.20;99.90;;;;;;5109227;28;20215;-50
2022/05/02 04:44:59;;;;;;;12.13;7.20;;;5.30;99.90;;;;;;5106857;28;20630;-50
2022/05/02 04:47:24;;;;;;;8.40;6.63;;;5.30;99.90;;;;;;5106963;28;20220;-50
2022/05/02 04:49:50;;;;;;;10.90;7.20;;;5.30;99.90;;;;;;5106735;28;20291;-50
2022/05/02 04:52:15;;;;;;;7.97;7.17;;;5.40;99.90;;;;;;5109092;28;20207;-50
2022/05/02 04:54:41;;;;;;;11.97;7.73;;;5.40;99.90;;;;;;5104833;28;20180;-50
2022/05/02 04:57:07;;;;;;;11.30;7.50;;;5.50;99.90;;;;;;5110173;28;20197;-51
2022/05/02 04:59:32;;;;;;;11.43;7.77;;;5.50;99.90;;;;;;5110173;28;20231;-50
2022/05/02 05:01:58;;;;;;;12.20;7.90;;;5.60;99.90;;;;;;5104246;28;20215;-50
2022/05/02 05:04:24;;;;;;;12.20;8.07;;;5.70;99.90;;;;;;5106911;28;20188;-50
2022/05/02 05:06:49;;;;;;;12.97;7.73;;;5.80;99.90;;;;;;5105450;28;20258;-50
2022/05/02 05:09:15;;;;;;;12.90;7.23;;;5.90;99.90;;;;;;5108094;28;20436;-50
2022/05/02 05:12:25;;;;;;;13.73;8.10;;;6.00;99.90;;;;;;5105635;28;20180;-50
2022/05/02 05:18:21;;;;;;;13.13;8.20;;;6.30;96.00;;;;;;5110001;28;20850;-51
2022/05/02 05:21:02;;;;;;;10.97;7.80;;;6.50;62.30;;;;;;5098399;28;20539;-50
2022/05/02 05:24:04;;;;;;;12.33;8.23;;;6.50;41.10;;;;;;5107098;28;20462;-50
2022/05/02 05:26:58;;;;;;;10.47;8.17;;;6.60;30.80;;;;;;5112668;28;20426;-50
2022/05/02 05:29:33;;;;;;;11.57;7.90;;;6.70;32.50;;;;;;5102338;28;20430;-50
2022/05/02 05:32:08;;;;;;;10.93;8.40;;;7.00;38.30;;;;;;5112726;27;20445;-50
2022/05/02 05:35:03;;;;;;;12.70;8.30;;;7.30;22.20;;;;;;5101998;27;20441;-50
2022/05/02 05:37:43;;;;;;;11.67;7.87;;;7.50;1.00;;;;;;5108609;28;20445;-50
2022/05/02 05:40:36;;;;;;;12.43;8.37;;;7.70;1.00;;;;;;5104649;28;20430;-50
2022/05/02 05:43:32;;;;;;;12.53;8.63;;;7.90;1.00;;;;;;5100919;28;20548;-50
2022/05/02 05:46:12;;;;;;;12.00;8.80;;;8.00;1.00;;;;;;5091426;28;20435;-50
2022/05/02 05:48:59;;;;;;;11.83;7.90;;;8.20;1.00;;;;;;5103809;28;20459;-50
2022/05/02 05:51:48;;;;;;;12.37;8.30;;;8.30;1.00;;;;;;5107704;28;20833;-50
2022/05/02 05:54:25;;;;;;;13.33;8.83;;;8.50;1.00;;;;;;5098275;28;20442;-50
2022/05/02 05:56:51;;;;;;;14.53;9.30;;;8.80;1.00;;;;;;5101060;28;20430;-50
2022/05/02 05:59:44;;;;;;;13.00;9.20;;;9.10;1.00;;;;;;5108491;28;20841;-50
2022/05/02 06:02:19;;;;;;;20.33;8.60;;;9.40;1.00;;;;;;5104939;28;20231;-50
2022/05/02 06:04:49;;;;;;;12.00;8.90;;;9.70;1.00;;;;;;5105585;27;20516;-50
2022/05/02 06:07:20;;;;;;;13.00;9.23;;;10.00;1.00;;;;;;5103990;27;20437;-50
2022/05/02 06:09:48;;;;;;;10.37;8.10;;;10.10;1.00;;;;;;5105687;28;21069;-50
2022/05/02 06:12:15;;;;;;;13.60;8.70;;;10.30;1.00;;;;;;5099451;28;20522;-50
2022/05/02 06:20:15;;;;;;;10.87;7.43;;;10.90;1.00;;;;;;5071145;28;20521;-50
2022/05/02 06:22:41;;;;;;;11.10;6.97;;;11.00;1.00;;;;;;5067908;28;20479;-50
2022/05/02 06:25:07;;;;;;;11.80;7.80;;;11.30;1.00;;;;;;5050298;28;20507;-50
2022/05/02 06:27:33;;;;;;;6.90;5.97;;;11.50;99.90;;;;;;5073461;28;20440;-50
2022/05/02 06:30:03;;;;;;;8.60;6.27;;;11.80;99.90;;;;;;5069935;28;20446;-50
2022/05/02 06:32:30;;;;;;;7.27;5.10;;;12.00;99.90;;;;;;5070452;28;20420;-50
2022/05/02 06:34:56;;;;;;;7.53;5.27;;;12.40;99.90;;;;;;5067720;28;20770;-49
2022/05/02 06:37:41;;;;;;;6.50;4.30;;;12.60;99.90;;;;;;5069335;28;20440;-49
2022/05/02 06:40:18;;;;;;;5.63;3.57;;;13.00;99.90;;;;;;5072896;28;20200;-50
2022/05/02 06:43:15;;;;;;;6.90;3.67;;;13.30;99.90;;;;;;5068687;28;21044;-50
2022/05/02 06:46:02;;;;;;;7.93;3.73;;;13.40;99.90;;;;;;5065199;28;20428;-49
2022/05/02 06:48:46;;;;;;;5.40;3.83;;;13.70;99.90;;;;;;5064300;28;20567;-50
2022/05/02 06:51:15;;;;;;;6.13;3.73;;;13.80;99.90;;;;;;5062713;28;20805;-49
2022/05/02 06:54:09;;;;;;;4.80;3.90;;;13.90;99.90;;;;;;5061967;28;20449;-50
2022/05/02 06:56:55;;;;;;;5.67;3.47;;;13.90;99.90;;;;;;5068195;28;20420;-50
2022/05/02 06:59:41;;;;;;;3.40;2.87;;;14.00;99.90;;;;;;5065153;28;20443;-50
2022/05/02 07:02:13;;;;;;;5.97;3.80;;;14.30;99.90;;;;;;5066224;28;20946;-50
2022/05/02 07:04:48;;;;;;;7.33;3.80;;;14.60;99.90;;;;;;5061844;28;20479;-49
2022/05/02 07:07:30;;;;;;;6.50;3.67;;;14.90;99.90;;;;;;5065313;28;20443;-50
2022/05/02 07:10:08;;;;;;;5.13;3.47;;;15.30;99.90;;;;;;5062555;28;20458;-49
2022/05/02 07:13:10;;;;;;;7.87;3.60;;;15.60;99.90;;;;;;5063342;28;20448;-50
2022/05/02 07:16:03;;;;;;;3.87;2.90;;;15.80;99.90;;;;;;5051031;28;20469;-50
2022/05/02 07:18:45;;;;;;;5.10;2.97;;;15.90;99.90;;;;;;5067080;28;20436;-50
2022/05/02 07:21:29;;;;;;;3.43;3.13;;;16.10;99.90;;;;;;5083301;28;20214;-50
2022/05/02 07:24:00;;;;;;;6.00;3.37;;;16.10;99.90;;;;;;5084472;28;20979;-50
2022/05/02 07:26:30;;;;;;;5.80;3.57;;;16.20;99.90;;;;;;5076925;28;20442;-50
2022/05/02 07:29:00;;;;;;;5.73;3.50;;;16.30;99.90;;;;;;5081645;28;20426;-50
2022/05/02 07:31:25;;;;;;;7.43;3.20;;;16.40;99.90;;;;;;5079197;28;20424;-50
2022/05/02 07:33:53;;;;;;;7.20;3.23;;;16.80;99.90;;;;;;5085547;28;20455;-49
2022/05/02 07:36:22;;;;;;;6.47;3.50;;;17.00;99.90;;;;;;5078450;28;20196;-50
2022/05/02 07:39:01;;;;;;;4.70;3.90;;;17.10;99.90;;;;;;5083726;28;20510;-50
2022/05/02 07:41:27;;;;;;;7.07;4.00;;;16.90;99.90;;;;;;5076218;28;20439;-50
2022/05/02 07:44:09;;;;;;;5.80;3.47;;;17.10;99.90;;;;;;5081166;28;20427;-49
2022/05/02 07:46:45;;;;;;;5.03;3.70;;;17.30;99.90;;;;;;5071905;28;20276;-50
2022/05/02 07:49:15;;;;;;;7.57;4.13;;;17.60;99.90;;;;;;5084038;28;20495;-50
2022/05/02 07:51:46;;;;;;;5.00;4.30;;;17.90;99.90;;;;;;5077805;28;20427;-50
2022/05/02 07:54:19;;;;;;;7.10;4.47;;;18.30;99.90;;;;;;5079012;28;20938;-50
2022/05/02 07:56:47;;;;;;;6.83;4.20;;;18.30;99.90;;;;;;5078915;28;20440;-50
2022/05/02 07:59:15;;;;;;;6.00;3.77;;;18.30;99.90;;;;;;5084610;28;20446;-50
2022/05/02 08:01:40;;;;;;;4.80;4.13;;;18.60;99.90;;;;;;5075977;28;20822;-50
2022/05/02 08:04:06;;;;;;;7.70;4.13;;;18.80;99.90;;;;;;5081614;28;20496;-50
2022/05/02 08:06:55;;;;;;;8.17;4.50;;;18.80;99.90;;;;;;5080372;28;20189;-50
2022/05/02 08:09:54;;;;;;;14.40;4.50;;;19.00;99.90;;;;;;5084745;28;20318;-50
2022/05/02 08:12:39;;;;;;;7.27;4.67;;;19.10;99.90;;;;;;5082404;28;20423;-50
2022/05/02 08:15:19;;;;;;;6.63;4.47;;;19.30;99.90;;;;;;5081011;28;20450;-51
2022/05/02 08:18:22;;;;;;;6.63;4.80;;;19.40;99.90;;;;;;5075741;28;20453;-51
2022/05/02 08:20:55;;;;;;;6.30;5.10;;;19.50;99.90;;;;;;5072883;28;20534;-50
2022/05/02 08:29:55;;;;;;;13.73;5.47;;;19.60;99.90;;;;;;5083108;28;20951;-50
2022/05/02 08:32:43;;;;;;;11.67;5.73;;;19.50;99.90;;;;;;5073180;28;20478;-51
2022/05/02 08:35:14;;;;;;;8.93;5.87;;;19.40;99.90;;;;;;5075576;28;20471;-50
2022/05/02 08:37:56;;;;;;;7.07;4.20;;;19.60;99.90;;;;;;5077459;28;20438;-50
2022/05/02 08:40:24;;;;;;;5.37;4.87;;;20.00;99.90;;;;;;5082972;28;20438;-50
2022/05/02 08:43:22;;;;;;;11.20;5.70;;;20.20;99.90;;;;;;5076860;28;20463;-50
2022/05/02 08:45:51;;;;;;;7.20;5.13;;;20.50;99.90;;;;;;5074096;28;20521;-50
2022/05/02 08:49:32;;;;;;;11.87;5.10;;;20.50;99.90;;;;;;5079188;28;20526;-50
2022/05/02 08:52:17;;;;;;;5.57;4.27;;;20.30;99.90;;;;;;5078163;28;20425;-50
2022/05/02 08:55:04;;;;;;;7.50;4.67;;;20.60;99.90;;;;;;5083623;28;20500;-50
2022/05/02 08:57:48;;;;;;;7.60;5.10;;;20.50;99.90;;;;;;5075138;28;20412;-50
2022/05/02 09:00:51;;;;;;;6.17;5.57;;;20.20;99.90;;;;;;5077153;28;20454;-50
2022/05/02 09:03:39;;;;;;;8.60;5.90;;;20.20;99.90;;;;;;5077967;28;20466;-50
2022/05/02 09:06:18;;;;;;;10.10;5.67;;;20.20;99.90;;;;;;5082073;28;20896;-50
2022/05/02 09:09:03;;;;;;;8.30;6.30;;;20.60;99.90;;;;;;5077035;28;20841;-50
2022/05/02 09:11:39;;;;;;;8.40;5.33;;;21.00;99.90;;;;;;5079886;28;20445;-50
2022/05/02 09:14:27;;;;;;;6.03;5.07;;;21.30;99.90;;;;;;5086125;28;20434;-50
2022/05/02 09:17:37;;;;;;;8.80;5.40;;;21.70;99.90;;;;;;5081927;28;20460;-50
2022/05/02 09:20:34;;;;;;;6.30;5.17;;;21.40;99.90;;;;;;5048743;28;20495;-50
2022/05/02 09:23:19;;;;;;;6.70;5.47;;;20.90;99.90;;;;;;5086188;28;20475;-50
2022/05/02 09:26:05;;;;;;;7.00;6.10;;;20.80;99.90;;;;;;5083707;28;20431;-50
2022/05/02 09:28:55;;;;;;;9.10;5.37;;;20.60;99.90;;;;;;5081033;28;20415;-50
2022/05/02 09:31:48;;;;;;;9.50;5.93;;;20.80;99.90;;;;;;5087376;28;20484;-50
2022/05/02 09:34:26;;;;;;;8.73;6.03;;;20.90;99.90;;;;;;5078805;28;20420;-50
2022/05/02 09:37:04;;;;;;;8.57;6.43;;;20.90;99.90;;;;;;5082000;28;20438;-51
2022/05/02 09:39:53;;;;;;;7.43;6.63;;;20.60;99.90;;;;;;5078079;28;20438;-50
2022/05/02 09:42:40;;;;;;;8.40;5.83;;;20.50;99.90;;;;;;5079287;28;20470;-50
2022/05/02 09:51:42;;;;;;;9.50;6.70;;;20.50;99.90;;;;;;5083068;28;20435;-50
2022/05/02 09:54:14;;;;;;;8.87;6.43;;;20.60;99.90;;;;;;5086364;28;21069;-50
2022/05/02 09:56:46;;;;;;;11.10;6.10;;;20.70;99.90;;;;;;5084521;28;20430;-50
2022/05/02 09:59:24;;;;;;;12.30;6.77;;;20.70;99.90;;;;;;5076713;28;20431;-50
2022/05/02 10:02:00;;;;;;;7.30;6.20;;;20.80;99.90;;;;;;5084641;28;20472;-50
2022/05/02 10:04:32;;;;;;;7.70;5.93;;;20.90;99.90;;;;;;5084059;28;20442;-50
2022/05/02 10:07:08;;;;;;;7.67;6.90;;;20.90;99.90;;;;;;5081405;28;20430;-50
2022/05/02 10:09:33;;;;;;;10.03;6.90;;;21.00;99.90;;;;;;5077084;28;20940;-55
2022/05/02 10:12:03;;;;;;;16.10;6.10;;;21.30;99.90;;;;;;5083853;28;20469;-52
2022/05/02 10:14:47;;;;;;;7.33;5.43;;;21.20;99.90;;;;;;5076922;28;20220;-50
2022/05/02 10:17:16;;;;;;;7.60;5.20;;;21.40;99.90;;;;;;5083141;28;20861;-50
2022/05/02 10:20:06;;;;;;;7.70;5.87;;;21.50;99.90;;;;;;5086872;28;20488;-50
2022/05/02 10:22:35;;;;;;;7.87;6.30;;;21.20;99.90;;;;;;5082279;28;20471;-51
2022/05/02 10:25:02;;;;;;;7.10;6.40;;;20.70;99.90;;;;;;5087486;28;20438;-50
2022/05/02 10:27:50;;;;;;;8.77;6.80;;;20.60;99.90;;;;;;5084997;28;20471;-50
2022/05/02 10:30:17;;;;;;;9.00;6.43;;;20.80;99.90;;;;;;5075981;28;21103;-51
2022/05/02 10:32:56;;;;;;;7.83;6.50;;;21.30;99.90;;;;;;5081787;28;20522;-51
2022/05/02 10:35:24;;;;;;;7.23;6.53;;;21.50;99.90;;;;;;5081778;28;20535;-51
2022/05/02 10:38:05;;;;;;;9.60;7.00;;;21.60;99.90;;;;;;5084506;28;20423;-51
2022/05/02 10:40:41;;;;;;;8.00;7.07;;;21.90;99.90;;;;;;5084714;28;20550;-51
2022/05/02 10:43:09;;;;;;;7.57;6.73;;;22.20;99.90;;;;;;5076295;28;20451;-50
2022/05/02 10:45:37;;;;;;;9.57;7.23;;;22.30;99.90;;;;;;5080579;28;20518;-50
2022/05/02 10:48:35;;;;;;;9.20;7.90;;;21.90;99.90;;;;;;5077711;28;21114;-51
2022/05/02 10:51:18;;;;;;;11.10;7.47;;;21.80;99.90;;;;;;5078186;28;20813;-50
2022/05/02 10:54:09;;;;;;;11.20;7.00;;;21.50;99.90;;;;;;5078969;28;20426;-50
2022/05/02 10:56:37;;;;;;;6.97;6.13;;;21.70;99.90;;;;;;5079817;28;20455;-50
2022/05/02 10:59:05;;;;;;;11.63;7.10;;;22.20;99.90;;;;;;5080976;28;20469;-50
2022/05/02 11:01:55;;;;;;;7.90;6.50;;;22.10;99.90;;;;;;5083249;28;20463;-51
2022/05/02 11:04:51;;;;;;;8.00;6.67;;;22.10;99.90;;;;;;5085456;28;20447;-51
2022/05/02 11:07:32;;;;;;;7.67;6.70;;;22.60;99.90;;;;;;5093700;28;20462;-50
2022/05/02 11:10:09;;;;;;;11.23;7.27;;;22.70;99.90;;;;;;5078291;28;20450;-50
2022/05/02 11:12:59;;;;;;;8.07;6.97;;;22.10;99.90;;;;;;5084280;28;20897;-50
2022/05/02 11:15:25;;;;;;;8.07;6.90;;;21.60;99.90;;;;;;5083605;28;20435;-51
2022/05/02 11:21:23;;;;;;;9.20;7.40;;;22.30;99.90;;;;;;5073480;28;20447;-51
2022/05/02 11:24:11;;;;;;;9.07;6.67;;;21.70;99.90;;;;;;5075674;28;21073;-50
2022/05/02 11:26:45;;;;;;;10.77;7.00;;;22.10;99.90;;;;;;5077974;28;20439;-51
2022/05/02 11:29:52;;;;;;;10.70;6.80;;;22.40;99.90;;;;;;5080609;28;20834;-50
2022/05/02 11:32:56;;;;;;;7.80;6.40;;;23.00;99.90;;;;;;5080108;28;21068;-50
2022/05/02 11:35:29;;;;;;;10.57;8.33;;;23.00;99.90;;;;;;5067078;28;20803;-50
2022/05/02 11:37:55;;;;;;;11.53;7.43;;;21.80;99.90;;;;;;5083051;28;20459;-51
2022/05/02 11:40:50;;;;;;;9.80;7.90;;;20.80;99.90;;;;;;5082227;28;20467;-50
2022/05/02 11:43:20;;;;;;;8.27;7.43;;;20.10;99.90;;;;;;5079779;28;20225;-50
2022/05/02 11:46:09;;;;;;;10.83;7.00;;;19.30;99.90;;;;;;5080685;28;20482;-50
2022/05/02 11:49:21;;;;;;;13.13;7.57;;;18.90;99.90;;;;;;5069180;28;20485;-50
2022/05/02 11:51:50;;;;;;;9.97;7.23;;;19.20;99.90;;;;;;5075802;28;20974;-50
2022/05/02 11:54:28;;;;;;;8.00;6.60;;;19.40;99.90;;;;;;5083041;28;20489;-50
2022/05/02 11:56:58;;;;;;;11.47;7.80;;;19.50;99.90;;;;;;5079114;28;21018;-51
2022/05/02 11:59:42;;;;;;;8.10;7.03;;;19.40;99.90;;;;;;5082877;28;20435;-51
2022/05/02 12:02:23;;;;;;;10.30;7.77;;;18.80;99.90;;;;;;5067406;28;22411;-51
2022/05/02 12:04:52;;;;;;;12.80;6.87;;;18.80;99.90;;;;;;5077777;28;21099;-51
2022/05/02 12:07:24;;;;;;;12.00;7.43;;;18.80;99.90;;;;;;5083336;28;20857;-50
2022/05/02 12:10:05;;;;;;;12.37;7.77;;;18.70;99.90;;;;;;5084925;28;20827;-51
2022/05/02 12:12:31;;;;;;;7.53;6.77;;;18.40;99.90;;;;;;5081070;28;20439;-53
2022/05/02 12:15:07;;;;;;;8.53;7.23;;;18.40;99.90;;;;;;5083864;28;20457;-53
2022/05/02 12:17:50;;;;;;;10.27;7.50;;;18.40;99.90;;;;;;5081719;28;20446;-52
2022/05/02 12:20:24;;;;;;;7.70;6.43;;;18.50;99.90;;;;;;5070626;28;20436;-53
2022/05/02 12:23:04;;;;;;;14.87;7.90;;;18.50;99.90;;;;;;5063448;28;20562;-50
2022/05/02 12:25:32;;;;;;;10.93;6.83;;;18.70;99.90;;;;;;5060312;28;20455;-51
2022/05/02 12:28:02;;;;;;;9.60;7.80;;;19.00;99.90;;;;;;5056896;28;20957;-50
2022/05/02 12:30:28;;;;;;;14.67;7.67;;;18.60;99.90;;;;;;5060594;28;20439;-50
2022/05/02 12:32:59;;;;;;;9.80;7.20;;;18.40;99.90;;;;;;5055858;28;20455;-50
2022/05/02 12:35:27;;;;;;;8.63;6.77;;;19.20;99.90;;;;;;5056203;28;21007;-51
2022/05/02 12:37:52;;;;;;;9.80;6.90;;;20.50;99.90;;;;;;5059593;28;20608;-51
2022/05/02 12:40:23;;;;;;;11.57;6.80;;;21.10;99.90;;;;;;5057485;28;20527;-51
2022/05/02 12:43:02;;;;;;;8.97;6.70;;;21.30;99.90;;;;;;5057140;28;20209;-51
2022/05/02 12:45:46;;;;;;;8.20;6.93;;;21.60;99.90;;;;;;5060603;28;20440;-51
2022/05/02 12:48:28;;;;;;;9.13;6.80;;;22.10;99.90;;;;;;5058797;28;20504;-51
2022/05/02 12:50:56;;;;;;;8.43;7.30;;;22.80;99.90;;;;;;5058807;28;20475;-51
2022/05/02 12:56:08;;;;;;;9.93;7.70;;;23.30;99.90;;;;;;5060613;28;20414;-51
2022/05/02 13:01:24;;;;;;;10.47;7.23;;;21.90;99.90;;;;;;5065538;28;21215;-51
2022/05/02 13:04:04;;;;;;;8.50;7.00;;;22.00;99.90;;;;;;5062089;28;20483;-51
2022/05/02 13:06:31;;;;;;;9.10;6.87;;;22.70;99.90;;;;;;5048529;28;20808;-51
2022/05/02 13:09:14;;;;;;;10.33;7.13;;;22.70;99.90;;;;;;5062765;28;20448;-51
2022/05/02 13:11:40;;;;;;;8.80;6.50;;;23.00;99.90;;;;;;5061274;28;20574;-51
2022/05/02 13:14:06;;;;;;;8.90;6.97;;;23.00;99.90;;;;;;5061158;28;21016;-51
2022/05/02 13:16:43;;;;;;;11.20;7.37;;;22.60;99.90;;;;;;5066748;28;20330;-50
2022/05/02 13:19:10;;;;;;;8.23;7.33;;;22.70;99.90;;;;;;5076026;28;20462;-51
2022/05/02 13:21:37;;;;;;;7.83;6.53;;;22.60;99.90;;;;;;5081033;28;20427;-51
2022/05/02 13:24:12;;;;;;;8.40;7.50;;;22.80;99.90;;;;;;5081687;28;20470;-51
2022/05/02 13:27:14;;;;;;;12.13;8.50;;;22.30;99.90;;;;;;5082576;28;20454;-50
2022/05/02 13:30:08;;;;;;;8.60;7.10;;;21.70;99.90;;;;;;5084288;28;20899;-50
2022/05/02 13:32:42;;;;;;;7.20;5.73;;;22.30;99.90;;;;;;5080004;28;20631;-51
2022/05/02 13:35:11;;;;;;;10.10;6.50;;;22.50;99.90;;;;;;5086723;28;20450;-51
2022/05/02 13:38:01;;;;;;;7.17;6.30;;;22.90;99.90;;;;;;5086081;28;20500;-51
2022/05/02 13:40:41;;;;;;;9.80;6.30;;;22.70;99.90;;;;;;5083333;28;20936;-50
2022/05/02 13:43:18;;;;;;;7.83;6.67;;;22.10;99.90;;;;;;5087783;28;21219;-51
2022/05/02 13:45:54;;;;;;;9.53;7.13;;;21.70;99.90;;;;;;5099073;28;20493;-51
2022/05/02 13:48:35;;;;;;;7.40;6.70;;;21.40;99.90;;;;;;5080993;28;20457;-51
2022/05/02 13:51:29;;;;;;;7.20;6.50;;;20.70;99.90;;;;;;5079719;28;20481;-50
2022/05/02 13:53:58;;;;;;;9.80;6.00;;;20.90;99.90;;;;;;5088627;28;20426;-50
2022/05/02 13:56:39;;;;;;;7.20;6.40;;;21.40;99.90;;;;;;5086683;28;21294;-50
2022/05/02 13:59:19;;;;;;;10.57;7.00;;;22.00;99.90;;;;;;5082728;28;20951;-50